createdAt,value
2023-05-20T00:02:42.366Z,53.65
2023-05-20T00:05:32.396Z,53.77
2023-05-20T00:08:21.954Z,53.74
2023-05-20T00:11:11.610Z,53.59
2023-05-20T00:14:00.960Z,53.46
2023-05-20T00:16:52.231Z,53.31
2023-05-20T00:19:44.505Z,53.43
2023-05-20T00:22:38.641Z,53.33
2023-05-20T00:25:30.602Z,53.30
2023-05-20T00:28:21.326Z,53.46
2023-05-20T00:31:11.350Z,53.41
2023-05-20T00:34:02.082Z,53.26
2023-05-20T00:36:51.863Z,53.34
2023-05-20T00:39:41.313Z,53.51
2023-05-20T00:42:31.012Z,53.61
2023-05-20T00:45:20.695Z,53.64
2023-05-20T00:48:11.241Z,53.99
2023-05-20T00:51:03.143Z,53.79
2023-05-20T00:53:52.854Z,54.07
2023-05-20T00:56:46.631Z,54.06
2023-05-20T00:59:36.956Z,54.35
2023-05-20T01:02:26.723Z,54.44
2023-05-20T01:05:16.246Z,54.36
2023-05-20T01:08:08.062Z,54.64
2023-05-20T01:11:05.206Z,54.72
2023-05-20T01:14:00.322Z,54.85
2023-05-20T01:16:53.971Z,54.72
2023-05-20T01:19:44.615Z,54.78
2023-05-20T01:22:37.842Z,54.69
2023-05-20T01:25:27.265Z,54.67
2023-05-20T01:28:18.120Z,54.75
2023-05-20T01:31:17.911Z,55.03
2023-05-20T01:34:07.576Z,54.78
2023-05-20T01:36:57.765Z,54.76
2023-05-20T01:39:50.798Z,54.68
2023-05-20T01:42:42.915Z,54.89
2023-05-20T01:45:33.353Z,54.64
2023-05-20T01:48:22.871Z,54.77
2023-05-20T01:51:12.333Z,54.64
2023-05-20T01:54:02.027Z,54.71
2023-05-20T01:56:53.017Z,54.57
2023-05-20T01:59:45.758Z,55.00
2023-05-20T02:02:35.246Z,55.17
2023-05-20T02:05:24.686Z,55.80
2023-05-20T02:08:14.015Z,55.91
2023-05-20T02:11:03.949Z,56.23
2023-05-20T02:13:54.649Z,56.98
2023-05-20T02:16:44.663Z,57.33
2023-05-20T02:19:35.636Z,57.87
2023-05-20T02:22:24.998Z,57.79
2023-05-20T02:25:14.600Z,58.09
2023-05-20T02:28:10.798Z,58.37
2023-05-20T02:31:01.584Z,58.91
2023-05-20T02:33:53.934Z,59.30
2023-05-20T02:36:43.317Z,59.96
2023-05-20T02:39:33.178Z,60.21
2023-05-20T02:42:22.504Z,60.54
2023-05-20T02:45:12.662Z,60.53
2023-05-20T02:48:03.413Z,61.08
2023-05-20T02:50:54.426Z,60.92
2023-05-20T02:53:43.682Z,61.34
2023-05-20T02:56:34.447Z,61.63
2023-05-20T02:59:25.355Z,61.65
2023-05-20T03:02:14.841Z,61.77
2023-05-20T03:05:06.358Z,61.79
2023-05-20T03:07:55.707Z,62.08
2023-05-20T03:10:45.001Z,62.08
2023-05-20T03:13:35.113Z,62.21
2023-05-20T03:16:25.340Z,62.15
2023-05-20T03:19:14.844Z,62.43
2023-05-20T03:22:06.159Z,62.40
2023-05-20T03:24:55.903Z,62.55
2023-05-20T03:27:46.718Z,62.38
2023-05-20T03:30:36.076Z,62.43
2023-05-20T03:33:26.420Z,62.58
2023-05-20T03:36:17.013Z,62.53
2023-05-20T03:39:07.822Z,62.47
2023-05-20T03:41:57.440Z,62.51
2023-05-20T03:44:46.854Z,62.72
2023-05-20T03:47:38.599Z,62.39
2023-05-20T03:50:28.653Z,62.64
2023-05-20T03:53:20.352Z,62.45
2023-05-20T03:56:11.184Z,62.41
2023-05-20T03:59:02.180Z,62.32
2023-05-20T04:01:52.013Z,62.58
2023-05-20T04:04:43.197Z,62.44
2023-05-20T04:07:32.993Z,62.25
2023-05-20T04:10:23.190Z,62.33
2023-05-20T04:13:15.702Z,62.49
2023-05-20T04:16:05.530Z,62.67
2023-05-20T04:18:54.946Z,62.48
2023-05-20T04:21:45.295Z,62.34
2023-05-20T04:24:35.010Z,62.35
2023-05-20T04:27:24.540Z,62.54
2023-05-20T04:30:16.937Z,62.55
2023-05-20T04:33:06.851Z,62.62
2023-05-20T04:35:58.790Z,62.35
2023-05-20T04:38:48.380Z,62.52
2023-05-20T04:41:37.895Z,62.96
2023-05-20T04:44:28.439Z,62.88
2023-05-20T04:47:19.259Z,62.94
2023-05-20T04:50:11.912Z,62.79
2023-05-20T04:53:03.275Z,62.71
2023-05-20T04:55:56.984Z,62.88
2023-05-20T04:58:46.732Z,63.13
2023-05-20T05:01:36.183Z,62.90
2023-05-20T05:04:26.968Z,62.98
2023-05-20T05:07:16.347Z,62.75
2023-05-20T05:10:06.787Z,63.24
2023-05-20T05:12:56.153Z,63.37
2023-05-20T05:15:45.645Z,63.74
2023-05-20T05:18:34.996Z,63.98
2023-05-20T05:21:25.858Z,63.70
2023-05-20T05:24:15.650Z,64.24
2023-05-20T05:27:05.853Z,64.09
2023-05-20T05:29:55.532Z,64.16
2023-05-20T05:32:45.164Z,64.27
2023-05-20T05:35:34.950Z,64.47
2023-05-20T05:38:26.092Z,64.36
2023-05-20T05:41:15.666Z,64.57
2023-05-20T05:44:06.082Z,64.70
2023-05-20T05:46:55.678Z,64.52
2023-05-20T05:49:44.981Z,64.84
2023-05-20T05:52:34.530Z,64.74
2023-05-20T05:55:26.852Z,64.79
2023-05-20T05:58:17.766Z,64.87
2023-05-20T06:01:07.906Z,64.89
2023-05-20T06:03:57.502Z,64.82
2023-05-20T06:06:46.986Z,64.84
2023-05-20T06:09:38.979Z,64.55
2023-05-20T06:12:29.829Z,64.87
2023-05-20T06:15:22.161Z,65.02
2023-05-20T06:18:14.204Z,64.69
2023-05-20T06:21:04.743Z,65.17
2023-05-20T06:23:57.118Z,65.13
2023-05-20T06:26:46.687Z,65.06
2023-05-20T06:29:37.499Z,65.21
2023-05-20T06:32:27.064Z,65.55
2023-05-20T06:35:18.593Z,65.55
2023-05-20T06:38:08.341Z,65.46
2023-05-20T06:40:57.862Z,65.38
2023-05-20T06:43:47.964Z,65.68
2023-05-20T06:46:57.436Z,65.81
2023-05-20T06:49:47.775Z,65.84
2023-05-20T06:52:38.638Z,66.10
2023-05-20T06:55:28.038Z,65.54
2023-05-20T06:58:17.558Z,65.80
2023-05-20T07:01:07.180Z,65.85
2023-05-20T07:03:58.858Z,65.78
2023-05-20T07:06:48.361Z,65.67
2023-05-20T07:09:37.818Z,65.37
2023-05-20T07:12:29.029Z,65.40
2023-05-20T07:15:18.677Z,65.38
2023-05-20T07:18:08.763Z,65.34
2023-05-20T07:20:59.606Z,65.51
2023-05-20T07:24:12.330Z,65.34
2023-05-20T07:27:01.647Z,65.21
2023-05-20T07:29:51.174Z,65.32
2023-05-20T07:32:41.137Z,65.48
2023-05-20T07:35:31.610Z,65.32
2023-05-20T07:38:25.256Z,65.47
2023-05-20T07:41:20.037Z,65.41
2023-05-20T07:44:11.388Z,65.39
2023-05-20T07:47:04.755Z,65.68
2023-05-20T07:49:55.602Z,65.42
2023-05-20T07:55:46.917Z,65.48
2023-05-20T07:58:37.020Z,65.38
2023-05-20T08:01:27.009Z,65.36
2023-05-20T08:04:17.384Z,65.34
2023-05-20T08:07:08.437Z,65.12
2023-05-20T08:10:11.491Z,65.08
2023-05-20T08:13:02.316Z,64.95
2023-05-20T08:15:54.922Z,64.81
2023-05-20T08:18:44.456Z,64.85
2023-05-20T08:21:33.699Z,64.90
2023-05-20T08:24:23.002Z,64.73
2023-05-20T08:27:12.672Z,64.80
2023-05-20T08:30:03.631Z,64.74
2023-05-20T08:32:54.084Z,64.71
2023-05-20T08:35:43.472Z,64.57
2023-05-20T08:38:32.671Z,64.56
2023-05-20T08:41:22.826Z,64.40
2023-05-20T08:44:12.890Z,63.99
2023-05-20T08:47:06.421Z,64.16
2023-05-20T08:49:56.208Z,64.20
2023-05-20T08:52:47.381Z,64.08
2023-05-20T08:55:44.703Z,64.04
2023-05-20T08:58:34.175Z,63.73
2023-05-20T09:01:26.392Z,63.58
2023-05-20T09:04:17.772Z,63.21
2023-05-20T09:07:07.500Z,63.48
2023-05-20T09:09:56.834Z,62.94
2023-05-20T09:12:46.272Z,63.14
2023-05-20T09:15:37.175Z,62.97
2023-05-20T09:18:26.848Z,62.63
2023-05-20T09:21:17.509Z,61.95
2023-05-20T09:24:07.276Z,61.60
2023-05-20T09:26:56.630Z,61.70
2023-05-20T09:29:46.075Z,61.55
2023-05-20T09:32:35.500Z,61.58
2023-05-20T09:35:25.133Z,61.19
2023-05-20T09:38:16.710Z,60.67
2023-05-20T09:41:09.901Z,60.59
2023-05-20T09:43:59.991Z,59.93
2023-05-20T09:46:50.251Z,60.22
2023-05-20T09:49:40.871Z,59.76
2023-05-20T09:52:31.286Z,59.28
2023-05-20T09:55:24.484Z,59.00
2023-05-20T09:58:16.356Z,59.10
2023-05-20T10:01:07.086Z,59.05
2023-05-20T10:03:57.669Z,59.13
2023-05-20T10:07:06.647Z,59.51
2023-05-20T10:10:13.091Z,59.46
2023-05-20T10:13:17.153Z,59.53
2023-05-20T10:16:30.841Z,58.99
2023-05-20T10:19:31.370Z,58.49
2023-05-20T10:22:29.927Z,58.28
2023-05-20T10:25:27.807Z,58.28
2023-05-20T10:28:26.499Z,58.01
2023-05-20T10:31:21.945Z,58.00
2023-05-20T10:34:18.152Z,57.87
2023-05-20T10:37:07.670Z,57.86
2023-05-20T10:40:09.855Z,57.38
2023-05-20T10:43:10.610Z,57.40
2023-05-20T10:46:03.244Z,57.07
2023-05-20T10:48:54.644Z,57.01
2023-05-20T10:51:46.398Z,56.62
2023-05-20T10:54:38.496Z,56.92
2023-05-20T10:57:29.935Z,56.67
2023-05-20T11:00:20.875Z,56.45
2023-05-20T11:03:13.275Z,55.88
2023-05-20T11:06:02.747Z,55.62
2023-05-20T11:08:52.066Z,55.38
2023-05-20T11:11:42.409Z,55.08
2023-05-20T11:14:32.232Z,54.84
2023-05-20T11:17:22.072Z,54.81
2023-05-20T11:20:16.000Z,54.83
2023-05-20T11:23:07.471Z,54.64
2023-05-20T11:25:59.724Z,54.19
2023-05-20T11:28:49.068Z,54.15
2023-05-20T11:31:40.318Z,54.13
2023-05-20T11:34:36.596Z,53.14
2023-05-20T11:37:27.413Z,53.28
2023-05-20T11:40:16.808Z,53.00
2023-05-20T11:43:06.052Z,52.78
2023-05-20T11:45:59.441Z,52.54
2023-05-20T11:48:55.036Z,52.18
2023-05-20T11:51:46.039Z,52.35
2023-05-20T11:54:38.904Z,52.25
2023-05-20T11:57:28.221Z,52.46
2023-05-20T12:00:18.070Z,52.32
2023-05-20T12:03:07.570Z,52.16
2023-05-20T12:05:58.335Z,52.18
2023-05-20T12:08:47.896Z,52.27
2023-05-20T12:11:41.713Z,52.80
2023-05-20T12:14:31.575Z,53.46
2023-05-20T12:17:20.840Z,54.25
2023-05-20T12:20:11.796Z,54.51
2023-05-20T12:23:01.489Z,54.67
2023-05-20T12:25:51.119Z,54.83
2023-05-20T12:28:41.814Z,55.01
2023-05-20T12:31:33.078Z,55.03
2023-05-20T12:34:24.058Z,54.82
2023-05-20T12:37:13.687Z,55.06
2023-05-20T12:40:05.680Z,55.14
2023-05-20T12:42:55.045Z,55.04
2023-05-20T12:45:45.885Z,55.17
2023-05-20T12:48:35.246Z,54.99
2023-05-20T12:51:24.493Z,54.90
2023-05-20T12:54:14.009Z,54.63
2023-05-20T12:57:03.344Z,54.68
2023-05-20T12:59:52.708Z,54.29
2023-05-20T13:02:44.350Z,54.48
2023-05-20T13:05:33.965Z,53.86
2023-05-20T13:08:23.233Z,53.65
2023-05-20T13:11:12.744Z,52.87
2023-05-20T13:14:02.249Z,52.31
2023-05-20T13:16:55.058Z,52.26
2023-05-20T13:19:45.908Z,51.88
2023-05-20T13:22:35.250Z,51.40
2023-05-20T13:25:24.642Z,50.93
2023-05-20T13:28:16.900Z,51.25
2023-05-20T13:31:07.935Z,51.00
2023-05-20T13:34:03.044Z,50.75
2023-05-20T13:36:53.776Z,50.80
2023-05-20T13:39:43.351Z,50.27
2023-05-20T13:42:32.778Z,50.30
2023-05-20T13:45:22.555Z,50.16
2023-05-20T13:48:12.274Z,49.92
2023-05-20T13:51:02.001Z,49.41
2023-05-20T13:53:52.750Z,49.33
2023-05-20T13:56:42.668Z,49.37
2023-05-20T13:59:32.048Z,49.36
2023-05-20T14:02:21.457Z,49.46
2023-05-20T14:05:11.240Z,49.34
2023-05-20T14:08:00.594Z,49.34
2023-05-20T14:10:54.905Z,49.34
2023-05-20T14:13:45.091Z,49.21
2023-05-20T14:16:34.518Z,49.10
2023-05-20T14:19:23.961Z,49.04
2023-05-20T14:22:15.452Z,49.00
2023-05-20T14:25:05.559Z,48.92
2023-05-20T14:27:56.592Z,49.09
2023-05-20T14:30:50.076Z,49.27
2023-05-20T14:33:39.878Z,49.34
2023-05-20T14:36:32.566Z,49.39
2023-05-20T14:39:24.461Z,49.83
2023-05-20T14:42:13.937Z,49.82
2023-05-20T14:45:05.201Z,49.91
2023-05-20T14:47:54.803Z,49.84
2023-05-20T14:50:47.690Z,49.80
2023-05-20T14:53:38.794Z,49.37
2023-05-20T14:56:28.207Z,49.47
2023-05-20T14:59:17.527Z,49.31
2023-05-20T15:02:08.840Z,49.45
2023-05-20T15:04:58.352Z,49.03
2023-05-20T15:08:00.705Z,48.98
2023-05-20T15:10:50.584Z,48.97
2023-05-20T15:13:40.620Z,48.86
2023-05-20T15:16:31.850Z,48.75
2023-05-20T15:19:23.041Z,48.77
2023-05-20T15:22:14.249Z,48.82
2023-05-20T15:25:09.257Z,48.60
2023-05-20T15:28:00.413Z,48.72
2023-05-20T15:30:56.589Z,48.84
2023-05-20T15:33:51.697Z,48.97
2023-05-20T15:36:42.648Z,49.23
2023-05-20T15:39:31.915Z,49.38
2023-05-20T15:42:27.052Z,49.26
2023-05-20T15:45:21.826Z,49.33
2023-05-20T15:48:11.683Z,49.13
2023-05-20T15:51:05.419Z,49.37
2023-05-20T15:54:01.871Z,49.82
2023-05-20T15:56:52.495Z,50.18
2023-05-20T15:59:41.830Z,50.27
2023-05-20T16:02:35.484Z,50.62
2023-05-20T16:05:25.897Z,50.70
2023-05-20T16:08:24.006Z,50.70
2023-05-20T16:11:17.762Z,50.04
2023-05-20T16:14:08.533Z,49.82
2023-05-20T16:17:02.643Z,49.87
2023-05-20T16:19:55.088Z,49.38
2023-05-20T16:22:47.101Z,49.33
2023-05-20T16:25:38.589Z,49.08
2023-05-20T16:28:29.239Z,49.43
2023-05-20T16:31:22.385Z,49.29
2023-05-20T16:34:11.801Z,49.83
2023-05-20T16:37:01.462Z,49.87
2023-05-20T16:39:50.922Z,50.16
2023-05-20T16:42:40.948Z,50.19
2023-05-20T16:45:31.829Z,50.22
2023-05-20T16:48:21.056Z,50.17
2023-05-20T16:51:10.391Z,50.26
2023-05-20T16:53:59.690Z,50.57
2023-05-20T16:56:49.030Z,50.61
2023-05-20T16:59:38.277Z,50.78
2023-05-20T17:02:29.101Z,52.09
2023-05-20T17:05:18.869Z,52.51
2023-05-20T17:08:08.212Z,53.15
2023-05-20T17:10:57.972Z,54.16
2023-05-20T17:13:47.386Z,54.54
2023-05-20T17:16:36.962Z,54.81
2023-05-20T17:19:27.929Z,54.79
2023-05-20T17:22:17.596Z,54.83
2023-05-20T17:25:08.034Z,54.89
2023-05-20T17:27:57.302Z,55.05
2023-05-20T17:30:46.649Z,56.18
2023-05-20T17:33:35.979Z,56.45
2023-05-20T17:36:26.899Z,56.63
2023-05-20T17:39:17.020Z,57.29
2023-05-20T17:42:07.031Z,57.64
2023-05-20T17:44:56.446Z,57.95
2023-05-20T17:47:45.852Z,58.10
2023-05-20T17:50:35.448Z,58.20
2023-05-20T17:53:26.396Z,58.42
2023-05-20T17:56:15.953Z,58.35
2023-05-20T17:59:05.782Z,58.30
2023-05-20T18:01:55.243Z,58.29
2023-05-20T18:04:44.672Z,58.54
2023-05-20T18:07:34.574Z,58.35
2023-05-20T18:10:25.403Z,58.31
2023-05-20T18:13:15.251Z,58.29
2023-05-20T18:16:04.816Z,58.75
2023-05-20T18:18:54.491Z,58.93
2023-05-20T18:21:44.484Z,59.08
2023-05-20T18:24:33.884Z,59.21
2023-05-20T18:27:24.978Z,59.52
2023-05-20T18:30:14.458Z,59.64
2023-05-20T18:33:03.881Z,60.06
2023-05-20T18:35:54.299Z,59.96
2023-05-20T18:38:45.122Z,59.94
2023-05-20T18:41:45.952Z,60.01
2023-05-20T18:44:37.515Z,60.19
2023-05-20T18:47:27.731Z,60.14
2023-05-20T18:50:17.234Z,60.20
2023-05-20T18:53:06.476Z,60.41
2023-05-20T18:55:56.235Z,60.55
2023-05-20T18:58:45.992Z,61.16
2023-05-20T19:01:36.857Z,61.45
2023-05-20T19:04:26.681Z,61.38
2023-05-20T19:07:16.056Z,61.40
2023-05-20T19:10:06.897Z,61.27
2023-05-20T19:12:56.933Z,61.23
2023-05-20T19:15:46.306Z,61.36
2023-05-20T19:18:36.975Z,61.27
2023-05-20T19:21:26.391Z,61.05
2023-05-20T19:24:17.714Z,60.93
2023-05-20T19:27:07.569Z,60.95
2023-05-20T19:29:56.881Z,61.05
2023-05-20T19:32:46.334Z,61.22
2023-05-20T19:35:37.283Z,61.33
2023-05-20T19:38:29.947Z,61.37
2023-05-20T19:41:19.612Z,61.26
2023-05-20T19:44:10.309Z,61.28
2023-05-20T19:46:59.748Z,61.18
2023-05-20T19:49:49.069Z,61.31
2023-05-20T19:52:39.824Z,61.28
2023-05-20T19:55:29.158Z,61.39
2023-05-20T19:58:18.508Z,61.29
2023-05-20T20:01:07.915Z,61.41
2023-05-20T20:03:57.515Z,61.67
2023-05-20T20:06:48.230Z,62.04
2023-05-20T20:09:39.232Z,62.12
2023-05-20T20:12:28.592Z,62.22
2023-05-20T20:15:20.603Z,62.60
2023-05-20T20:18:10.100Z,62.68
2023-05-20T20:21:00.677Z,62.62
2023-05-20T20:23:50.093Z,62.99
2023-05-20T20:26:40.786Z,63.02
2023-05-20T20:29:30.033Z,63.30
2023-05-20T20:32:19.508Z,63.35
2023-05-20T20:35:10.386Z,63.43
2023-05-20T20:38:00.240Z,63.77
2023-05-20T20:40:50.031Z,64.05
2023-05-20T20:43:42.749Z,64.38
2023-05-20T20:46:32.121Z,64.27
2023-05-20T20:49:22.573Z,64.59
2023-05-20T20:52:12.495Z,64.59
2023-05-20T20:55:01.995Z,64.92
2023-05-20T20:57:51.350Z,64.96
2023-05-20T21:00:44.466Z,64.87
2023-05-20T21:03:35.184Z,64.74
2023-05-20T21:06:24.456Z,64.84
2023-05-20T21:09:13.954Z,64.54
2023-05-20T21:12:06.703Z,64.79
2023-05-20T21:14:56.223Z,64.78
2023-05-20T21:17:46.947Z,64.87
2023-05-20T21:20:36.525Z,64.93
2023-05-20T21:23:25.969Z,65.04
2023-05-20T21:26:15.327Z,65.16
2023-05-20T21:29:04.843Z,64.95
2023-05-20T21:31:55.178Z,65.11
2023-05-20T21:34:45.935Z,65.44
2023-05-20T21:37:35.624Z,65.30
2023-05-20T21:40:25.130Z,65.40
2023-05-20T21:43:14.394Z,65.51
2023-05-20T21:46:03.824Z,65.61
2023-05-20T21:48:53.148Z,65.62
2023-05-20T21:51:44.042Z,65.46
2023-05-20T21:54:33.705Z,65.54
2023-05-20T21:57:23.017Z,65.55
2023-05-20T22:00:15.348Z,65.78
2023-05-20T22:03:04.923Z,65.88
2023-05-20T22:05:55.508Z,65.96
2023-05-20T22:08:46.351Z,66.18
2023-05-20T22:11:37.763Z,66.25
2023-05-20T22:14:27.529Z,66.31
2023-05-20T22:17:18.006Z,65.94
2023-05-20T22:20:10.643Z,66.31
2023-05-20T22:23:00.145Z,66.46
2023-05-20T22:25:51.130Z,66.67
2023-05-20T22:28:40.494Z,66.86
2023-05-20T22:31:29.964Z,66.81
2023-05-20T22:34:20.319Z,67.12
2023-05-20T22:37:10.314Z,67.22
2023-05-20T22:39:59.782Z,67.30
2023-05-20T22:42:53.974Z,67.70
2023-05-20T22:45:43.384Z,67.69
2023-05-20T22:48:32.771Z,67.60
2023-05-20T22:51:22.438Z,67.72
2023-05-20T22:54:13.822Z,67.89
2023-05-20T22:57:03.420Z,68.14
2023-05-20T22:59:58.655Z,67.56
2023-05-20T23:02:50.216Z,67.71
2023-05-20T23:05:39.552Z,67.63
2023-05-20T23:08:28.939Z,67.52
2023-05-20T23:11:18.252Z,67.69
2023-05-20T23:14:07.790Z,67.56
2023-05-20T23:16:58.635Z,67.57
2023-05-20T23:19:48.737Z,68.06
2023-05-20T23:22:38.105Z,67.85
2023-05-20T23:25:27.839Z,67.96
2023-05-20T23:28:20.215Z,68.10
2023-05-20T23:31:10.476Z,67.98
2023-05-20T23:34:03.827Z,67.93
2023-05-20T23:36:53.330Z,67.95
2023-05-20T23:39:42.945Z,68.07
2023-05-20T23:42:32.744Z,67.95
2023-05-20T23:45:22.133Z,68.14
2023-05-20T23:48:13.622Z,68.07
2023-05-20T23:51:04.646Z,68.36
2023-05-20T23:53:53.957Z,68.56
2023-05-20T23:56:44.419Z,68.49
2023-05-20T23:59:34.352Z,68.85
